createdAt,value
2023-01-05T00:00:42.964Z,1.90
2023-01-05T00:04:44.943Z,1.57
2023-01-05T00:08:46.798Z,1.30
2023-01-05T00:13:06.550Z,1.20
2023-01-05T00:17:30.216Z,1.20
2023-01-05T00:21:49.952Z,1.43
2023-01-05T00:25:51.021Z,1.43
2023-01-05T00:29:52.184Z,1.30
2023-01-05T00:33:53.330Z,1.60
2023-01-05T00:37:54.797Z,1.50
2023-01-05T00:41:55.985Z,1.20
2023-01-05T00:45:57.270Z,1.20
2023-01-05T00:49:58.503Z,1.40
2023-01-05T00:53:59.657Z,1.00
2023-01-05T00:58:00.878Z,1.13
2023-01-05T01:02:02.326Z,1.10
2023-01-05T01:06:04.053Z,1.40
2023-01-05T01:10:06.484Z,0.87
2023-01-05T01:14:09.624Z,0.80
2023-01-05T01:18:10.869Z,1.00
2023-01-05T01:22:12.517Z,1.00
2023-01-05T01:26:14.265Z,1.33
2023-01-05T01:30:15.589Z,1.17
2023-01-05T01:34:16.932Z,1.20
2023-01-05T01:38:18.129Z,1.20
2023-01-05T01:42:20.677Z,0.80
2023-01-05T01:46:23.367Z,1.07
2023-01-05T01:50:33.528Z,0.90
2023-01-05T01:54:34.871Z,0.90
2023-01-05T01:58:37.825Z,1.20
2023-01-05T02:02:39.040Z,1.20
2023-01-05T02:06:40.263Z,1.03
2023-01-05T02:11:08.013Z,1.00
2023-01-05T02:15:30.882Z,1.40
2023-01-05T02:19:44.581Z,1.30
2023-01-05T02:24:15.643Z,1.23
2023-01-05T02:28:29.200Z,1.07
2023-01-05T02:32:37.155Z,1.00
2023-01-05T02:36:57.397Z,1.00
2023-01-05T02:41:02.344Z,0.80
2023-01-05T02:45:05.770Z,1.00
2023-01-05T02:49:07.320Z,1.00
2023-01-05T02:53:24.123Z,1.07
2023-01-05T02:57:46.553Z,1.00
2023-01-05T03:01:51.697Z,0.93
2023-01-05T03:05:56.442Z,1.80
2023-01-05T03:09:59.572Z,1.23
2023-01-05T03:14:04.666Z,1.30
2023-01-05T03:18:09.028Z,1.47
2023-01-05T03:22:35.907Z,1.77
2023-01-05T03:26:57.613Z,1.53
2023-01-05T03:31:26.559Z,1.20
2023-01-05T03:35:33.046Z,1.77
2023-01-05T03:39:37.914Z,2.57
2023-01-05T03:43:41.280Z,1.37
2023-01-05T03:47:42.440Z,1.80
2023-01-05T03:51:43.589Z,2.10
2023-01-05T03:55:45.022Z,2.23
2023-01-05T03:59:46.158Z,2.17
2023-01-05T04:03:47.515Z,2.57
2023-01-05T04:07:48.668Z,2.00
2023-01-05T04:11:49.825Z,3.07
2023-01-05T04:15:51.063Z,2.90
2023-01-05T04:19:52.210Z,2.83
2023-01-05T04:23:53.379Z,2.57
2023-01-05T04:27:54.543Z,3.60
2023-01-05T04:31:55.689Z,3.17
2023-01-05T04:35:56.781Z,3.10
2023-01-05T04:39:57.925Z,3.30
2023-01-05T04:43:59.114Z,3.00
2023-01-05T04:48:00.262Z,3.63
2023-01-05T04:52:01.533Z,3.80
2023-01-05T04:56:02.706Z,3.53
2023-01-05T05:00:05.073Z,3.53
2023-01-05T05:04:06.247Z,4.43
2023-01-05T05:08:07.538Z,3.57
2023-01-05T05:12:08.695Z,3.23
2023-01-05T05:16:09.865Z,3.57
2023-01-05T05:20:11.397Z,2.83
2023-01-05T05:24:12.558Z,2.63
2023-01-05T05:28:13.716Z,2.97
2023-01-05T05:32:14.875Z,2.43
2023-01-05T05:36:17.226Z,2.47
2023-01-05T05:40:18.365Z,2.27
2023-01-05T05:44:19.535Z,3.47
2023-01-05T05:48:20.709Z,4.50
2023-01-05T05:52:21.789Z,3.17
2023-01-05T05:56:22.937Z,2.93
2023-01-05T06:00:25.367Z,3.13
2023-01-05T06:04:26.777Z,2.90
2023-01-05T06:08:29.089Z,3.03
2023-01-05T06:12:30.195Z,4.07
2023-01-05T06:16:31.639Z,2.63
2023-01-05T06:20:32.829Z,3.03
2023-01-05T06:24:34.001Z,3.80
2023-01-05T06:28:35.133Z,2.27
2023-01-05T06:32:36.253Z,2.80
2023-01-05T06:36:37.400Z,3.63
2023-01-05T06:40:40.074Z,3.40
2023-01-05T06:44:42.005Z,2.77
2023-01-05T06:48:43.162Z,3.53
2023-01-05T06:52:44.396Z,3.10
2023-01-05T06:56:45.479Z,4.50
2023-01-05T07:00:46.637Z,2.70
2023-01-05T07:04:47.953Z,3.00
2023-01-05T07:08:49.172Z,2.80
2023-01-05T07:12:50.332Z,2.87
2023-01-05T07:16:51.507Z,2.60
2023-01-05T07:20:52.751Z,3.50
2023-01-05T07:24:54.011Z,3.57
2023-01-05T07:28:55.566Z,3.37
2023-01-05T07:32:58.109Z,2.50
2023-01-05T07:36:59.334Z,2.90
2023-01-05T07:41:01.381Z,2.67
2023-01-05T07:45:02.822Z,3.67
2023-01-05T07:49:03.973Z,2.93
2023-01-05T07:53:05.127Z,1.90
2023-01-05T07:57:06.282Z,2.23
2023-01-05T08:01:10.224Z,2.30
2023-01-05T08:05:11.413Z,2.53
2023-01-05T08:09:31.042Z,1.93
2023-01-05T08:13:51.045Z,2.13
2023-01-05T08:17:52.175Z,2.00
2023-01-05T08:21:53.323Z,1.70
2023-01-05T08:25:54.981Z,1.80
2023-01-05T08:29:56.224Z,2.57
2023-01-05T08:33:59.239Z,2.40
2023-01-05T08:38:00.380Z,2.97
2023-01-05T08:42:02.956Z,4.97
2023-01-05T08:46:04.626Z,2.70
2023-01-05T08:50:08.680Z,2.57
2023-01-05T08:54:11.700Z,2.37
2023-01-05T08:58:12.856Z,3.97
2023-01-05T09:02:14.511Z,3.00
2023-01-05T09:06:16.898Z,3.87
2023-01-05T09:10:18.040Z,3.20
2023-01-05T09:14:19.282Z,3.10
2023-01-05T09:18:20.441Z,3.33
2023-01-05T09:22:21.698Z,3.10
2023-01-05T09:26:22.919Z,3.57
2023-01-05T09:30:24.052Z,2.20
2023-01-05T09:34:25.253Z,3.47
2023-01-05T09:38:26.566Z,3.23
2023-01-05T09:42:30.645Z,3.03
2023-01-05T09:46:38.435Z,3.03
2023-01-05T09:50:39.633Z,2.80
2023-01-05T09:54:40.825Z,2.93
2023-01-05T09:58:44.970Z,2.67
2023-01-05T10:03:08.306Z,2.90
2023-01-05T10:07:16.239Z,2.63
2023-01-05T10:11:39.483Z,2.33
2023-01-05T10:15:50.543Z,2.43
2023-01-05T10:19:52.180Z,2.90
2023-01-05T10:24:15.455Z,3.47
2023-01-05T10:28:23.379Z,3.03
2023-01-05T10:32:47.595Z,2.93
2023-01-05T10:37:07.854Z,3.37
2023-01-05T10:41:23.568Z,3.53
2023-01-05T10:45:27.789Z,4.87
2023-01-05T10:49:31.560Z,3.37
2023-01-05T10:53:40.343Z,4.10
2023-01-05T10:57:42.220Z,3.50
2023-01-05T11:01:46.761Z,4.47
2023-01-05T11:05:48.642Z,5.00
2023-01-05T11:09:50.001Z,4.90
2023-01-05T11:13:58.215Z,4.03
2023-01-05T11:17:59.683Z,4.70
2023-01-05T11:22:02.384Z,4.53
2023-01-05T11:26:13.837Z,4.13
2023-01-05T11:30:19.533Z,4.50
2023-01-05T11:34:33.630Z,3.33
2023-01-05T11:38:34.896Z,3.93
2023-01-05T11:42:38.049Z,5.00
2023-01-05T11:46:41.963Z,3.70
2023-01-05T11:50:46.206Z,4.50
2023-01-05T11:54:47.488Z,4.60
2023-01-05T11:58:51.335Z,4.10
2023-01-05T12:03:20.363Z,7.03
2023-01-05T12:07:31.603Z,4.77
2023-01-05T12:11:42.372Z,5.17
2023-01-05T12:15:50.055Z,4.00
2023-01-05T12:19:57.832Z,5.03
2023-01-05T12:24:05.860Z,5.23
2023-01-05T12:28:39.471Z,4.30
2023-01-05T12:37:00.066Z,4.53
2023-01-05T12:41:24.461Z,4.70
2023-01-05T12:45:50.293Z,3.40
2023-01-05T12:50:04.143Z,4.30
2023-01-05T12:54:39.246Z,4.83
2023-01-05T12:58:47.851Z,3.57
2023-01-05T13:03:06.401Z,4.10
2023-01-05T13:07:11.380Z,3.10
2023-01-05T13:11:28.578Z,5.30
2023-01-05T13:15:50.432Z,4.43
2023-01-05T13:19:57.912Z,4.30
2023-01-05T13:24:26.146Z,4.20
2023-01-05T13:28:30.053Z,4.70
2023-01-05T13:32:58.779Z,3.93
2023-01-05T13:37:03.752Z,4.13
2023-01-05T13:41:32.787Z,4.23
2023-01-05T13:46:00.827Z,3.90
2023-01-05T13:50:25.163Z,3.90
2023-01-05T13:54:59.944Z,3.80
2023-01-05T13:58:51.194Z,4.47
2023-01-05T14:03:08.358Z,5.60
2023-01-05T14:07:13.340Z,5.17
2023-01-05T14:11:18.409Z,3.77
2023-01-05T14:15:36.813Z,4.47
2023-01-05T14:19:41.824Z,4.10
2023-01-05T14:23:46.812Z,3.73
2023-01-05T14:28:17.817Z,4.33
2023-01-05T14:32:29.415Z,3.47
2023-01-05T14:36:40.393Z,3.10
2023-01-05T14:40:44.851Z,3.90
2023-01-05T14:44:58.359Z,3.90
2023-01-05T14:49:05.983Z,3.93
2023-01-05T14:53:38.123Z,7.53
2023-01-05T14:57:48.613Z,4.60
2023-01-05T15:01:53.543Z,5.00
2023-01-05T15:06:01.508Z,3.40
2023-01-05T15:10:23.318Z,3.43
2023-01-05T15:14:40.625Z,4.57
2023-01-05T15:18:57.881Z,4.67
2023-01-05T15:23:02.775Z,4.50
2023-01-05T15:27:29.321Z,3.83
2023-01-05T15:31:47.475Z,4.23
2023-01-05T15:35:56.399Z,3.87
2023-01-05T15:40:03.433Z,5.57
2023-01-05T15:44:04.804Z,5.10
2023-01-05T15:48:10.428Z,5.57
2023-01-05T15:52:21.448Z,4.80
2023-01-05T15:56:26.134Z,4.97
2023-01-05T16:00:30.484Z,4.80
2023-01-05T16:04:31.647Z,4.40
2023-01-05T16:08:35.406Z,5.13
2023-01-05T16:12:36.784Z,4.75
2023-01-05T16:16:52.372Z,5.57
2023-01-05T16:20:47.293Z,4.80
2023-01-05T16:25:22.913Z,5.33
2023-01-05T16:29:39.831Z,4.20
2023-01-05T16:33:41.083Z,4.50
2023-01-05T16:37:42.282Z,4.20
2023-01-05T16:41:45.333Z,4.60
2023-01-05T16:45:46.860Z,4.47
2023-01-05T16:49:57.702Z,4.30
2023-01-05T16:53:56.140Z,4.30
2023-01-05T16:57:58.958Z,4.43
2023-01-05T17:02:00.828Z,4.53
2023-01-05T17:06:02.293Z,5.90
2023-01-05T17:10:05.362Z,4.90
2023-01-05T17:14:07.047Z,5.43
2023-01-05T17:22:22.261Z,5.90
2023-01-05T17:26:35.863Z,4.73
2023-01-05T17:30:37.167Z,5.97
2023-01-05T17:34:40.651Z,4.80
2023-01-05T17:38:41.884Z,4.10
2023-01-05T17:42:43.266Z,6.10
2023-01-05T17:46:46.858Z,5.23
2023-01-05T17:50:48.805Z,5.20
2023-01-05T17:54:50.176Z,4.10
2023-01-05T17:58:51.955Z,4.37
2023-01-05T18:02:54.025Z,5.10
2023-01-05T18:06:55.164Z,4.43
2023-01-05T18:10:58.128Z,5.20
2023-01-05T18:14:59.269Z,5.53
2023-01-05T18:19:00.436Z,5.23
2023-01-05T18:23:01.584Z,4.97
2023-01-05T18:27:04.650Z,5.10
2023-01-05T18:31:13.719Z,5.60
2023-01-05T18:35:15.048Z,4.87
2023-01-05T18:39:16.196Z,5.33
2023-01-05T18:43:17.411Z,5.10
2023-01-05T18:47:18.561Z,5.63
2023-01-05T18:51:19.753Z,6.73
2023-01-05T18:55:20.969Z,5.07
2023-01-05T18:59:22.131Z,5.73
2023-01-05T19:03:23.281Z,4.80
2023-01-05T19:07:24.450Z,5.23
2023-01-05T19:11:26.896Z,6.77
2023-01-05T19:15:28.083Z,6.00
2023-01-05T19:19:29.264Z,6.10
2023-01-05T19:23:30.435Z,5.70
2023-01-05T19:27:31.594Z,4.93
2023-01-05T19:31:33.775Z,6.10
2023-01-05T19:35:35.156Z,5.67
2023-01-05T19:39:36.371Z,6.10
2023-01-05T19:43:40.167Z,6.00
2023-01-05T19:47:42.402Z,5.60
2023-01-05T19:51:44.662Z,6.30
2023-01-05T19:55:45.877Z,6.20
2023-01-05T19:59:47.012Z,5.77
2023-01-05T20:03:49.035Z,6.93
2023-01-05T20:07:52.475Z,5.47
2023-01-05T20:11:59.525Z,5.40
2023-01-05T20:16:03.202Z,5.07
2023-01-05T20:20:04.775Z,5.63
2023-01-05T20:24:12.418Z,4.90
2023-01-05T20:28:13.567Z,4.67
2023-01-05T20:32:20.350Z,5.77
2023-01-05T20:36:23.071Z,5.20
2023-01-05T20:40:24.309Z,6.27
2023-01-05T20:44:26.228Z,4.70
2023-01-05T20:48:29.863Z,5.40
2023-01-05T20:52:31.161Z,11.20
2023-01-05T20:56:35.567Z,5.63
2023-01-05T21:01:11.177Z,5.03
2023-01-05T21:04:40.262Z,4.90
2023-01-05T21:08:44.639Z,3.97
2023-01-05T21:12:45.914Z,6.30
2023-01-05T21:16:52.159Z,3.60
2023-01-05T21:20:53.765Z,4.30
2023-01-05T21:24:54.948Z,4.07
2023-01-05T21:28:56.193Z,4.60
2023-01-05T21:32:57.397Z,4.10
2023-01-05T21:36:58.603Z,5.30
2023-01-05T21:41:04.826Z,3.73
2023-01-05T21:45:07.701Z,4.07
2023-01-05T21:49:10.192Z,5.40
2023-01-05T21:53:33.917Z,4.60
2023-01-05T21:57:35.710Z,4.33
2023-01-05T22:01:38.334Z,3.87
2023-01-05T22:05:39.580Z,3.80
2023-01-05T22:09:40.854Z,4.73
2023-01-05T22:13:42.096Z,3.97
2023-01-05T22:17:43.918Z,4.37
2023-01-05T22:21:45.109Z,4.00
2023-01-05T22:25:46.297Z,4.83
2023-01-05T22:29:47.494Z,4.07
2023-01-05T22:33:51.401Z,4.53
2023-01-05T22:37:52.677Z,4.13
2023-01-05T22:41:53.838Z,3.57
2023-01-05T22:46:00.424Z,4.13
2023-01-05T22:50:02.966Z,3.57
2023-01-05T22:54:04.473Z,3.63
2023-01-05T22:58:05.683Z,4.00
2023-01-05T23:02:07.175Z,3.90
2023-01-05T23:06:08.741Z,3.37
2023-01-05T23:10:09.947Z,4.17
2023-01-05T23:14:12.400Z,3.87
2023-01-05T23:18:13.607Z,3.97
2023-01-05T23:22:14.717Z,3.07
2023-01-05T23:26:16.021Z,3.80
2023-01-05T23:30:17.296Z,2.97
2023-01-05T23:34:18.565Z,3.13
2023-01-05T23:38:20.083Z,2.70
2023-01-05T23:42:39.950Z,3.53
2023-01-05T23:46:41.152Z,3.40
2023-01-05T23:50:44.301Z,2.93
2023-01-05T23:54:45.502Z,2.90
2023-01-05T23:58:47.513Z,2.83
